sensor_id;sensor_type;location;lat;lon;timestamp;P1;durP1;ratioP1;P2;durP2;ratioP2
27572;SDS011;15009;53.082;8.768;2022-07-01T00:00:20;9.60;;;4.93;;
27572;SDS011;15009;53.082;8.768;2022-07-01T00:03:20;8.73;;;5.28;;
27572;SDS011;15009;53.082;8.768;2022-07-01T00:06:21;7.07;;;4.70;;
27572;SDS011;15009;53.082;8.768;2022-07-01T00:09:22;8.32;;;4.60;;
27572;SDS011;15009;53.082;8.768;2022-07-01T00:12:23;7.28;;;4.50;;
27572;SDS011;15009;53.082;8.768;2022-07-01T00:15:23;8.27;;;5.22;;
27572;SDS011;15009;53.082;8.768;2022-07-01T00:18:24;11.45;;;5.72;;
27572;SDS011;15009;53.082;8.768;2022-07-01T00:21:24;11.75;;;5.38;;
27572;SDS011;15009;53.082;8.768;2022-07-01T00:24:25;9.60;;;5.65;;
27572;SDS011;15009;53.082;8.768;2022-07-01T00:27:26;9.27;;;5.70;;
27572;SDS011;15009;53.082;8.768;2022-07-01T00:30:27;7.32;;;5.95;;
27572;SDS011;15009;53.082;8.768;2022-07-01T00:33:28;9.43;;;6.10;;
27572;SDS011;15009;53.082;8.768;2022-07-01T00:36:28;11.45;;;6.20;;
27572;SDS011;15009;53.082;8.768;2022-07-01T00:39:29;9.27;;;7.22;;
27572;SDS011;15009;53.082;8.768;2022-07-01T00:42:31;10.50;;;7.15;;
27572;SDS011;15009;53.082;8.768;2022-07-01T00:45:32;12.50;;;8.20;;
27572;SDS011;15009;53.082;8.768;2022-07-01T00:48:33;9.63;;;8.35;;
27572;SDS011;15009;53.082;8.768;2022-07-01T00:51:36;16.90;;;9.38;;
27572;SDS011;15009;53.082;8.768;2022-07-01T00:54:37;9.30;;;8.30;;
27572;SDS011;15009;53.082;8.768;2022-07-01T00:57:39;14.15;;;9.52;;
27572;SDS011;15009;53.082;8.768;2022-07-01T01:03:41;9.73;;;8.73;;
27572;SDS011;15009;53.082;8.768;2022-07-01T01:06:41;9.98;;;8.90;;
27572;SDS011;15009;53.082;8.768;2022-07-01T01:09:42;11.25;;;8.88;;
27572;SDS011;15009;53.082;8.768;2022-07-01T01:12:44;10.38;;;7.78;;
27572;SDS011;15009;53.082;8.768;2022-07-01T01:15:45;10.48;;;7.13;;
27572;SDS011;15009;53.082;8.768;2022-07-01T01:18:46;8.18;;;5.95;;
27572;SDS011;15009;53.082;8.768;2022-07-01T01:21:47;8.13;;;6.22;;
27572;SDS011;15009;53.082;8.768;2022-07-01T01:24:47;8.75;;;6.63;;
27572;SDS011;15009;53.082;8.768;2022-07-01T01:27:48;7.05;;;5.45;;
27572;SDS011;15009;53.082;8.768;2022-07-01T01:30:49;10.20;;;6.15;;
27572;SDS011;15009;53.082;8.768;2022-07-01T01:33:49;8.73;;;6.10;;
27572;SDS011;15009;53.082;8.768;2022-07-01T01:36:50;7.78;;;6.43;;
27572;SDS011;15009;53.082;8.768;2022-07-01T01:39:51;9.40;;;5.93;;
27572;SDS011;15009;53.082;8.768;2022-07-01T01:42:52;8.23;;;5.95;;
27572;SDS011;15009;53.082;8.768;2022-07-01T01:45:52;6.88;;;6.20;;
27572;SDS011;15009;53.082;8.768;2022-07-01T01:48:53;11.02;;;6.55;;
27572;SDS011;15009;53.082;8.768;2022-07-01T01:51:54;8.55;;;6.38;;
27572;SDS011;15009;53.082;8.768;2022-07-01T01:54:56;11.23;;;7.10;;
27572;SDS011;15009;53.082;8.768;2022-07-01T01:57:57;10.63;;;6.72;;
27572;SDS011;15009;53.082;8.768;2022-07-01T02:00:57;13.98;;;6.32;;
27572;SDS011;15009;53.082;8.768;2022-07-01T02:03:58;8.43;;;5.85;;
27572;SDS011;15009;53.082;8.768;2022-07-01T02:06:59;8.57;;;4.57;;
27572;SDS011;15009;53.082;8.768;2022-07-01T02:09:59;10.90;;;4.88;;
27572;SDS011;15009;53.082;8.768;2022-07-01T02:13:00;7.78;;;4.55;;
27572;SDS011;15009;53.082;8.768;2022-07-01T02:16:02;10.88;;;4.68;;
27572;SDS011;15009;53.082;8.768;2022-07-01T02:19:03;10.63;;;4.20;;
27572;SDS011;15009;53.082;8.768;2022-07-01T02:22:04;11.63;;;4.88;;
27572;SDS011;15009;53.082;8.768;2022-07-01T02:25:04;8.68;;;3.58;;
27572;SDS011;15009;53.082;8.768;2022-07-01T02:28:05;7.82;;;3.40;;
27572;SDS011;15009;53.082;8.768;2022-07-01T02:31:07;11.55;;;3.92;;
27572;SDS011;15009;53.082;8.768;2022-07-01T02:34:08;7.95;;;3.80;;
27572;SDS011;15009;53.082;8.768;2022-07-01T02:37:08;15.80;;;4.20;;
27572;SDS011;15009;53.082;8.768;2022-07-01T02:40:09;12.25;;;4.25;;
27572;SDS011;15009;53.082;8.768;2022-07-01T02:43:10;16.42;;;4.70;;
27572;SDS011;15009;53.082;8.768;2022-07-01T02:46:10;11.45;;;4.25;;
27572;SDS011;15009;53.082;8.768;2022-07-01T02:49:11;9.80;;;4.50;;
27572;SDS011;15009;53.082;8.768;2022-07-01T02:52:12;9.77;;;4.30;;
27572;SDS011;15009;53.082;8.768;2022-07-01T02:55:12;8.63;;;4.07;;
27572;SDS011;15009;53.082;8.768;2022-07-01T02:58:13;11.52;;;4.53;;
27572;SDS011;15009;53.082;8.768;2022-07-01T03:01:14;11.43;;;4.38;;
27572;SDS011;15009;53.082;8.768;2022-07-01T03:04:14;7.30;;;3.80;;
27572;SDS011;15009;53.082;8.768;2022-07-01T03:07:15;6.72;;;3.55;;
27572;SDS011;15009;53.082;8.768;2022-07-01T03:10:16;10.35;;;3.53;;
27572;SDS011;15009;53.082;8.768;2022-07-01T03:13:17;12.50;;;4.18;;
27572;SDS011;15009;53.082;8.768;2022-07-01T03:16:19;8.95;;;3.40;;
27572;SDS011;15009;53.082;8.768;2022-07-01T03:19:19;9.93;;;3.58;;
27572;SDS011;15009;53.082;8.768;2022-07-01T03:22:20;11.48;;;3.30;;
27572;SDS011;15009;53.082;8.768;2022-07-01T03:25:22;8.77;;;3.17;;
27572;SDS011;15009;53.082;8.768;2022-07-01T03:28:23;11.98;;;3.00;;
27572;SDS011;15009;53.082;8.768;2022-07-01T03:31:24;10.95;;;3.03;;
27572;SDS011;15009;53.082;8.768;2022-07-01T03:34:24;11.48;;;3.03;;
27572;SDS011;15009;53.082;8.768;2022-07-01T03:37:25;8.70;;;3.42;;
27572;SDS011;15009;53.082;8.768;2022-07-01T03:40:25;13.63;;;7.35;;
27572;SDS011;15009;53.082;8.768;2022-07-01T03:43:26;8.57;;;3.25;;
27572;SDS011;15009;53.082;8.768;2022-07-01T03:46:26;8.20;;;2.75;;
27572;SDS011;15009;53.082;8.768;2022-07-01T03:49:34;7.00;;;2.83;;
27572;SDS011;15009;53.082;8.768;2022-07-01T03:52:35;7.38;;;2.45;;
27572;SDS011;15009;53.082;8.768;2022-07-01T03:55:36;4.93;;;2.13;;
27572;SDS011;15009;53.082;8.768;2022-07-01T03:58:37;7.43;;;2.20;;
27572;SDS011;15009;53.082;8.768;2022-07-01T04:01:37;11.20;;;2.60;;
27572;SDS011;15009;53.082;8.768;2022-07-01T04:04:38;5.78;;;2.20;;
27572;SDS011;15009;53.082;8.768;2022-07-01T04:07:38;7.88;;;2.25;;
27572;SDS011;15009;53.082;8.768;2022-07-01T04:10:39;6.30;;;1.80;;
27572;SDS011;15009;53.082;8.768;2022-07-01T04:13:40;8.13;;;2.03;;
27572;SDS011;15009;53.082;8.768;2022-07-01T04:16:42;3.67;;;2.05;;
27572;SDS011;15009;53.082;8.768;2022-07-01T04:19:44;3.78;;;1.90;;
27572;SDS011;15009;53.082;8.768;2022-07-01T04:22:45;7.15;;;2.47;;
27572;SDS011;15009;53.082;8.768;2022-07-01T04:25:46;6.20;;;2.25;;
27572;SDS011;15009;53.082;8.768;2022-07-01T04:28:47;9.05;;;2.30;;
27572;SDS011;15009;53.082;8.768;2022-07-01T04:31:47;6.53;;;2.17;;
27572;SDS011;15009;53.082;8.768;2022-07-01T04:34:48;6.65;;;2.65;;
27572;SDS011;15009;53.082;8.768;2022-07-01T04:37:49;6.63;;;2.15;;
27572;SDS011;15009;53.082;8.768;2022-07-01T04:40:49;6.55;;;2.53;;
27572;SDS011;15009;53.082;8.768;2022-07-01T04:44:09;6.88;;;1.85;;
27572;SDS011;15009;53.082;8.768;2022-07-01T04:47:09;3.78;;;2.17;;
27572;SDS011;15009;53.082;8.768;2022-07-01T04:50:10;7.70;;;1.92;;
27572;SDS011;15009;53.082;8.768;2022-07-01T04:53:12;5.75;;;1.90;;
27572;SDS011;15009;53.082;8.768;2022-07-01T04:56:13;16.20;;;9.90;;
27572;SDS011;15009;53.082;8.768;2022-07-01T04:59:14;9.55;;;2.17;;
27572;SDS011;15009;53.082;8.768;2022-07-01T05:02:15;4.53;;;1.83;;
27572;SDS011;15009;53.082;8.768;2022-07-01T05:05:15;2.72;;;1.52;;
27572;SDS011;15009;53.082;8.768;2022-07-01T05:08:16;11.32;;;1.90;;
27572;SDS011;15009;53.082;8.768;2022-07-01T05:11:17;8.55;;;2.28;;
27572;SDS011;15009;53.082;8.768;2022-07-01T05:14:17;3.80;;;1.85;;
27572;SDS011;15009;53.082;8.768;2022-07-01T05:17:18;3.20;;;1.60;;
27572;SDS011;15009;53.082;8.768;2022-07-01T05:20:18;18.52;;;11.82;;
27572;SDS011;15009;53.082;8.768;2022-07-01T05:23:37;3.97;;;2.50;;
27572;SDS011;15009;53.082;8.768;2022-07-01T05:26:38;4.03;;;2.22;;
27572;SDS011;15009;53.082;8.768;2022-07-01T05:29:39;3.90;;;2.20;;
27572;SDS011;15009;53.082;8.768;2022-07-01T05:32:39;5.70;;;2.25;;
27572;SDS011;15009;53.082;8.768;2022-07-01T05:35:40;4.75;;;2.10;;
27572;SDS011;15009;53.082;8.768;2022-07-01T05:38:40;4.80;;;2.30;;
27572;SDS011;15009;53.082;8.768;2022-07-01T05:41:41;4.28;;;2.50;;
27572;SDS011;15009;53.082;8.768;2022-07-01T05:44:42;5.35;;;2.50;;
27572;SDS011;15009;53.082;8.768;2022-07-01T05:47:42;4.53;;;2.65;;
27572;SDS011;15009;53.082;8.768;2022-07-01T05:50:43;6.18;;;2.65;;
27572;SDS011;15009;53.082;8.768;2022-07-01T05:53:44;5.47;;;2.60;;
27572;SDS011;15009;53.082;8.768;2022-07-01T05:56:47;5.35;;;3.05;;
27572;SDS011;15009;53.082;8.768;2022-07-01T05:59:47;6.10;;;3.40;;
27572;SDS011;15009;53.082;8.768;2022-07-01T06:02:48;6.15;;;3.30;;
27572;SDS011;15009;53.082;8.768;2022-07-01T06:05:49;7.63;;;3.30;;
27572;SDS011;15009;53.082;8.768;2022-07-01T06:08:49;5.82;;;2.85;;
27572;SDS011;15009;53.082;8.768;2022-07-01T06:11:50;7.20;;;3.20;;
27572;SDS011;15009;53.082;8.768;2022-07-01T06:14:50;6.78;;;3.03;;
27572;SDS011;15009;53.082;8.768;2022-07-01T06:17:51;8.18;;;2.90;;
27572;SDS011;15009;53.082;8.768;2022-07-01T06:20:53;8.23;;;3.97;;
27572;SDS011;15009;53.082;8.768;2022-07-01T06:23:53;17.15;;;6.15;;
27572;SDS011;15009;53.082;8.768;2022-07-01T06:26:54;7.25;;;4.30;;
27572;SDS011;15009;53.082;8.768;2022-07-01T06:29:54;5.85;;;4.32;;
27572;SDS011;15009;53.082;8.768;2022-07-01T06:32:55;8.25;;;4.75;;
27572;SDS011;15009;53.082;8.768;2022-07-01T06:35:56;8.70;;;5.13;;
27572;SDS011;15009;53.082;8.768;2022-07-01T06:38:57;6.53;;;4.47;;
27572;SDS011;15009;53.082;8.768;2022-07-01T06:41:58;7.80;;;5.10;;
27572;SDS011;15009;53.082;8.768;2022-07-01T06:44:58;6.43;;;5.13;;
27572;SDS011;15009;53.082;8.768;2022-07-01T06:47:59;15.77;;;10.50;;
27572;SDS011;15009;53.082;8.768;2022-07-01T06:51:00;16.65;;;12.48;;
27572;SDS011;15009;53.082;8.768;2022-07-01T06:54:02;15.10;;;7.60;;
27572;SDS011;15009;53.082;8.768;2022-07-01T06:57:06;9.52;;;7.10;;
27572;SDS011;15009;53.082;8.768;2022-07-01T07:00:08;10.38;;;6.70;;
27572;SDS011;15009;53.082;8.768;2022-07-01T07:03:09;8.13;;;6.90;;
27572;SDS011;15009;53.082;8.768;2022-07-01T07:06:10;9.48;;;6.93;;
27572;SDS011;15009;53.082;8.768;2022-07-01T07:09:11;7.22;;;6.40;;
27572;SDS011;15009;53.082;8.768;2022-07-01T07:12:11;9.20;;;7.40;;
27572;SDS011;15009;53.082;8.768;2022-07-01T07:15:12;9.60;;;7.07;;
27572;SDS011;15009;53.082;8.768;2022-07-01T07:18:12;8.50;;;7.57;;
27572;SDS011;15009;53.082;8.768;2022-07-01T07:21:13;8.80;;;7.22;;
27572;SDS011;15009;53.082;8.768;2022-07-01T07:24:13;7.53;;;6.53;;
27572;SDS011;15009;53.082;8.768;2022-07-01T07:27:14;8.15;;;7.30;;
27572;SDS011;15009;53.082;8.768;2022-07-01T07:30:15;9.05;;;7.43;;
27572;SDS011;15009;53.082;8.768;2022-07-01T07:33:16;8.50;;;7.60;;
27572;SDS011;15009;53.082;8.768;2022-07-01T07:36:17;22.50;;;16.48;;
27572;SDS011;15009;53.082;8.768;2022-07-01T07:39:17;12.13;;;9.52;;
27572;SDS011;15009;53.082;8.768;2022-07-01T07:42:18;17.02;;;11.68;;
27572;SDS011;15009;53.082;8.768;2022-07-01T07:45:19;15.75;;;11.30;;
27572;SDS011;15009;53.082;8.768;2022-07-01T07:48:19;11.02;;;9.07;;
27572;SDS011;15009;53.082;8.768;2022-07-01T07:51:20;10.23;;;8.73;;
27572;SDS011;15009;53.082;8.768;2022-07-01T07:54:22;10.43;;;8.55;;
27572;SDS011;15009;53.082;8.768;2022-07-01T07:57:23;13.52;;;8.88;;
27572;SDS011;15009;53.082;8.768;2022-07-01T08:00:24;17.33;;;9.82;;
27572;SDS011;15009;53.082;8.768;2022-07-01T08:03:24;12.75;;;9.13;;
27572;SDS011;15009;53.082;8.768;2022-07-01T08:06:25;13.98;;;9.65;;
27572;SDS011;15009;53.082;8.768;2022-07-01T08:09:26;11.65;;;10.18;;
27572;SDS011;15009;53.082;8.768;2022-07-01T08:12:26;14.27;;;11.57;;
27572;SDS011;15009;53.082;8.768;2022-07-01T08:15:27;15.02;;;12.13;;
27572;SDS011;15009;53.082;8.768;2022-07-01T08:18:28;16.40;;;12.20;;
27572;SDS011;15009;53.082;8.768;2022-07-01T08:21:29;16.88;;;13.05;;
27572;SDS011;15009;53.082;8.768;2022-07-01T08:24:29;18.67;;;13.68;;
27572;SDS011;15009;53.082;8.768;2022-07-01T08:27:30;16.90;;;14.90;;
27572;SDS011;15009;53.082;8.768;2022-07-01T08:30:31;15.77;;;13.77;;
27572;SDS011;15009;53.082;8.768;2022-07-01T08:33:31;17.10;;;14.38;;
27572;SDS011;15009;53.082;8.768;2022-07-01T08:36:32;18.58;;;16.63;;
27572;SDS011;15009;53.082;8.768;2022-07-01T08:39:33;21.20;;;17.60;;
27572;SDS011;15009;53.082;8.768;2022-07-01T08:42:33;20.38;;;18.27;;
27572;SDS011;15009;53.082;8.768;2022-07-01T08:45:35;20.95;;;18.75;;
27572;SDS011;15009;53.082;8.768;2022-07-01T08:48:40;23.95;;;20.85;;
27572;SDS011;15009;53.082;8.768;2022-07-01T08:51:42;23.30;;;20.80;;
27572;SDS011;15009;53.082;8.768;2022-07-01T08:54:43;25.30;;;21.40;;
27572;SDS011;15009;53.082;8.768;2022-07-01T08:57:44;27.85;;;22.35;;
27572;SDS011;15009;53.082;8.768;2022-07-01T09:00:44;26.00;;;21.48;;
27572;SDS011;15009;53.082;8.768;2022-07-01T09:03:45;24.60;;;21.25;;
27572;SDS011;15009;53.082;8.768;2022-07-01T09:06:46;27.27;;;22.45;;
27572;SDS011;15009;53.082;8.768;2022-07-01T09:09:48;24.60;;;21.70;;
27572;SDS011;15009;53.082;8.768;2022-07-01T09:12:48;24.65;;;21.92;;
27572;SDS011;15009;53.082;8.768;2022-07-01T09:15:49;27.52;;;21.98;;
27572;SDS011;15009;53.082;8.768;2022-07-01T09:18:59;27.13;;;22.48;;
27572;SDS011;15009;53.082;8.768;2022-07-01T09:22:01;27.63;;;21.67;;
27572;SDS011;15009;53.082;8.768;2022-07-01T09:25:11;24.83;;;20.60;;
27572;SDS011;15009;53.082;8.768;2022-07-01T09:28:16;27.02;;;21.88;;
27572;SDS011;15009;53.082;8.768;2022-07-01T09:31:34;30.75;;;23.70;;
27572;SDS011;15009;53.082;8.768;2022-07-01T09:37:42;22.90;;;19.70;;
27572;SDS011;15009;53.082;8.768;2022-07-01T09:40:48;25.23;;;20.97;;
27572;SDS011;15009;53.082;8.768;2022-07-01T09:44:08;22.83;;;19.48;;
27572;SDS011;15009;53.082;8.768;2022-07-01T09:47:09;25.40;;;18.58;;
27572;SDS011;15009;53.082;8.768;2022-07-01T09:50:10;26.65;;;19.30;;
27572;SDS011;15009;53.082;8.768;2022-07-01T09:53:10;22.98;;;18.95;;
27572;SDS011;15009;53.082;8.768;2022-07-01T09:56:12;23.02;;;18.73;;
27572;SDS011;15009;53.082;8.768;2022-07-01T09:59:12;21.90;;;19.48;;
27572;SDS011;15009;53.082;8.768;2022-07-01T10:02:13;23.45;;;18.67;;
27572;SDS011;15009;53.082;8.768;2022-07-01T10:05:19;24.67;;;19.65;;
27572;SDS011;15009;53.082;8.768;2022-07-01T10:12:38;21.48;;;18.75;;
27572;SDS011;15009;53.082;8.768;2022-07-01T10:15:41;23.77;;;20.00;;
27572;SDS011;15009;53.082;8.768;2022-07-01T10:18:44;25.00;;;21.42;;
27572;SDS011;15009;53.082;8.768;2022-07-01T10:21:45;21.60;;;19.27;;
27572;SDS011;15009;53.082;8.768;2022-07-01T10:24:46;23.17;;;19.38;;
27572;SDS011;15009;53.082;8.768;2022-07-01T10:28:11;22.70;;;18.48;;
27572;SDS011;15009;53.082;8.768;2022-07-01T10:31:14;31.85;;;24.55;;
27572;SDS011;15009;53.082;8.768;2022-07-01T10:34:16;21.63;;;17.67;;
27572;SDS011;15009;53.082;8.768;2022-07-01T10:40:19;24.13;;;18.65;;
27572;SDS011;15009;53.082;8.768;2022-07-01T10:43:40;20.13;;;17.92;;
27572;SDS011;15009;53.082;8.768;2022-07-01T10:46:55;21.55;;;19.08;;
27572;SDS011;15009;53.082;8.768;2022-07-01T10:50:08;24.27;;;19.20;;
27572;SDS011;15009;53.082;8.768;2022-07-01T10:53:13;28.05;;;19.25;;
27572;SDS011;15009;53.082;8.768;2022-07-01T10:56:17;23.48;;;18.40;;
27572;SDS011;15009;53.082;8.768;2022-07-01T10:59:17;24.30;;;17.70;;
27572;SDS011;15009;53.082;8.768;2022-07-01T11:02:22;31.25;;;17.45;;
27572;SDS011;15009;53.082;8.768;2022-07-01T11:05:22;18.92;;;15.18;;
27572;SDS011;15009;53.082;8.768;2022-07-01T11:08:23;18.48;;;13.15;;
27572;SDS011;15009;53.082;8.768;2022-07-01T11:11:24;19.65;;;12.30;;
27572;SDS011;15009;53.082;8.768;2022-07-01T11:14:24;13.73;;;12.15;;
27572;SDS011;15009;53.082;8.768;2022-07-01T11:17:26;17.07;;;11.10;;
27572;SDS011;15009;53.082;8.768;2022-07-01T11:20:27;14.85;;;10.70;;
27572;SDS011;15009;53.082;8.768;2022-07-01T11:23:30;13.80;;;10.57;;
27572;SDS011;15009;53.082;8.768;2022-07-01T11:26:31;17.77;;;11.07;;
27572;SDS011;15009;53.082;8.768;2022-07-01T11:29:31;11.18;;;9.63;;
27572;SDS011;15009;53.082;8.768;2022-07-01T11:32:33;14.85;;;9.05;;
27572;SDS011;15009;53.082;8.768;2022-07-01T11:35:44;13.32;;;9.55;;
27572;SDS011;15009;53.082;8.768;2022-07-01T11:39:03;12.13;;;9.50;;
27572;SDS011;15009;53.082;8.768;2022-07-01T11:42:25;15.50;;;9.80;;
27572;SDS011;15009;53.082;8.768;2022-07-01T11:45:26;15.00;;;8.77;;
27572;SDS011;15009;53.082;8.768;2022-07-01T11:48:34;13.80;;;9.68;;
27572;SDS011;15009;53.082;8.768;2022-07-01T11:52:04;10.98;;;9.07;;
27572;SDS011;15009;53.082;8.768;2022-07-01T11:55:06;14.32;;;9.82;;
27572;SDS011;15009;53.082;8.768;2022-07-01T11:58:06;12.85;;;10.23;;
27572;SDS011;15009;53.082;8.768;2022-07-01T12:01:07;13.75;;;10.57;;
27572;SDS011;15009;53.082;8.768;2022-07-01T12:04:08;15.57;;;10.25;;
27572;SDS011;15009;53.082;8.768;2022-07-01T12:07:09;15.27;;;10.83;;
27572;SDS011;15009;53.082;8.768;2022-07-01T12:10:13;13.38;;;9.70;;
27572;SDS011;15009;53.082;8.768;2022-07-01T12:13:20;13.68;;;9.32;;
27572;SDS011;15009;53.082;8.768;2022-07-01T12:16:24;14.13;;;9.73;;
27572;SDS011;15009;53.082;8.768;2022-07-01T12:19:28;12.98;;;9.82;;
27572;SDS011;15009;53.082;8.768;2022-07-01T12:22:37;10.43;;;9.00;;
27572;SDS011;15009;53.082;8.768;2022-07-01T12:25:37;6.75;;;5.10;;
27572;SDS011;15009;53.082;8.768;2022-07-01T12:28:39;10.02;;;5.63;;
27572;SDS011;15009;53.082;8.768;2022-07-01T12:31:40;9.48;;;5.72;;
27572;SDS011;15009;53.082;8.768;2022-07-01T12:34:42;8.73;;;5.25;;
27572;SDS011;15009;53.082;8.768;2022-07-01T12:37:43;7.63;;;5.85;;
27572;SDS011;15009;53.082;8.768;2022-07-01T12:40:44;7.97;;;6.22;;
27572;SDS011;15009;53.082;8.768;2022-07-01T12:43:44;8.25;;;6.13;;
27572;SDS011;15009;53.082;8.768;2022-07-01T12:46:45;7.65;;;6.38;;
27572;SDS011;15009;53.082;8.768;2022-07-01T12:49:45;8.77;;;6.15;;
27572;SDS011;15009;53.082;8.768;2022-07-01T12:56:06;9.43;;;6.75;;
27572;SDS011;15009;53.082;8.768;2022-07-01T12:59:06;9.20;;;6.50;;
27572;SDS011;15009;53.082;8.768;2022-07-01T13:02:07;9.65;;;6.65;;
27572;SDS011;15009;53.082;8.768;2022-07-01T13:05:08;9.40;;;7.25;;
27572;SDS011;15009;53.082;8.768;2022-07-01T13:08:09;7.70;;;5.78;;
27572;SDS011;15009;53.082;8.768;2022-07-01T13:11:10;8.83;;;7.77;;
27572;SDS011;15009;53.082;8.768;2022-07-01T13:14:11;10.77;;;7.15;;
27572;SDS011;15009;53.082;8.768;2022-07-01T13:17:12;9.93;;;7.32;;
27572;SDS011;15009;53.082;8.768;2022-07-01T13:20:12;8.70;;;6.55;;
27572;SDS011;15009;53.082;8.768;2022-07-01T13:23:15;14.93;;;6.47;;
27572;SDS011;15009;53.082;8.768;2022-07-01T13:26:15;8.10;;;6.32;;
27572;SDS011;15009;53.082;8.768;2022-07-01T13:29:16;10.60;;;7.18;;
27572;SDS011;15009;53.082;8.768;2022-07-01T13:32:16;8.70;;;6.10;;
27572;SDS011;15009;53.082;8.768;2022-07-01T13:35:18;9.82;;;7.15;;
27572;SDS011;15009;53.082;8.768;2022-07-01T13:38:18;9.77;;;6.80;;
27572;SDS011;15009;53.082;8.768;2022-07-01T13:41:19;9.68;;;6.93;;
27572;SDS011;15009;53.082;8.768;2022-07-01T13:44:21;9.10;;;6.63;;
27572;SDS011;15009;53.082;8.768;2022-07-01T13:47:22;10.00;;;7.20;;
27572;SDS011;15009;53.082;8.768;2022-07-01T13:50:23;10.70;;;6.47;;
27572;SDS011;15009;53.082;8.768;2022-07-01T13:53:24;12.65;;;7.18;;
27572;SDS011;15009;53.082;8.768;2022-07-01T13:56:25;8.93;;;5.93;;
27572;SDS011;15009;53.082;8.768;2022-07-01T13:59:26;9.73;;;7.63;;
27572;SDS011;15009;53.082;8.768;2022-07-01T14:02:27;9.80;;;6.55;;
27572;SDS011;15009;53.082;8.768;2022-07-01T14:05:27;8.98;;;5.88;;
27572;SDS011;15009;53.082;8.768;2022-07-01T14:08:28;7.72;;;6.10;;
27572;SDS011;15009;53.082;8.768;2022-07-01T14:11:28;9.98;;;6.10;;
27572;SDS011;15009;53.082;8.768;2022-07-01T14:14:29;9.18;;;5.97;;
27572;SDS011;15009;53.082;8.768;2022-07-01T14:17:30;8.07;;;5.85;;
27572;SDS011;15009;53.082;8.768;2022-07-01T14:20:31;7.47;;;5.43;;
27572;SDS011;15009;53.082;8.768;2022-07-01T14:23:31;8.98;;;5.80;;
27572;SDS011;15009;53.082;8.768;2022-07-01T14:26:32;9.35;;;5.85;;
27572;SDS011;15009;53.082;8.768;2022-07-01T14:29:33;8.88;;;5.70;;
27572;SDS011;15009;53.082;8.768;2022-07-01T14:32:34;12.30;;;6.43;;
27572;SDS011;15009;53.082;8.768;2022-07-01T14:35:35;8.88;;;5.85;;
27572;SDS011;15009;53.082;8.768;2022-07-01T14:38:36;10.88;;;6.00;;
27572;SDS011;15009;53.082;8.768;2022-07-01T14:41:37;9.95;;;5.68;;
27572;SDS011;15009;53.082;8.768;2022-07-01T14:44:37;9.95;;;6.30;;
27572;SDS011;15009;53.082;8.768;2022-07-01T14:47:38;8.70;;;5.68;;
27572;SDS011;15009;53.082;8.768;2022-07-01T14:50:42;10.85;;;7.53;;
27572;SDS011;15009;53.082;8.768;2022-07-01T14:53:43;10.05;;;6.25;;
27572;SDS011;15009;53.082;8.768;2022-07-01T14:56:43;11.32;;;6.15;;
27572;SDS011;15009;53.082;8.768;2022-07-01T14:59:44;10.27;;;6.72;;
27572;SDS011;15009;53.082;8.768;2022-07-01T15:02:45;11.00;;;6.57;;
27572;SDS011;15009;53.082;8.768;2022-07-01T15:05:46;11.15;;;7.00;;
27572;SDS011;15009;53.082;8.768;2022-07-01T15:08:46;9.63;;;6.40;;
27572;SDS011;15009;53.082;8.768;2022-07-01T15:11:50;9.15;;;6.32;;
27572;SDS011;15009;53.082;8.768;2022-07-01T15:14:51;7.85;;;6.10;;
27572;SDS011;15009;53.082;8.768;2022-07-01T15:17:52;8.30;;;5.70;;
27572;SDS011;15009;53.082;8.768;2022-07-01T15:20:53;11.90;;;6.07;;
27572;SDS011;15009;53.082;8.768;2022-07-01T15:23:54;12.75;;;6.00;;
27572;SDS011;15009;53.082;8.768;2022-07-01T15:26:55;8.43;;;5.40;;
27572;SDS011;15009;53.082;8.768;2022-07-01T15:29:56;9.73;;;5.80;;
27572;SDS011;15009;53.082;8.768;2022-07-01T15:32:57;10.35;;;6.05;;
27572;SDS011;15009;53.082;8.768;2022-07-01T15:35:58;9.67;;;6.10;;
27572;SDS011;15009;53.082;8.768;2022-07-01T15:38:59;9.70;;;5.85;;
27572;SDS011;15009;53.082;8.768;2022-07-01T15:42:00;11.38;;;6.03;;
27572;SDS011;15009;53.082;8.768;2022-07-01T15:45:03;12.35;;;6.75;;
27572;SDS011;15009;53.082;8.768;2022-07-01T15:48:05;9.45;;;5.53;;
27572;SDS011;15009;53.082;8.768;2022-07-01T15:51:05;9.40;;;5.55;;
27572;SDS011;15009;53.082;8.768;2022-07-01T15:54:06;11.88;;;5.68;;
27572;SDS011;15009;53.082;8.768;2022-07-01T15:57:07;8.85;;;6.32;;
27572;SDS011;15009;53.082;8.768;2022-07-01T16:00:07;9.90;;;6.25;;
27572;SDS011;15009;53.082;8.768;2022-07-01T16:03:09;9.50;;;5.43;;
27572;SDS011;15009;53.082;8.768;2022-07-01T16:06:10;7.68;;;5.03;;
27572;SDS011;15009;53.082;8.768;2022-07-01T16:09:13;9.90;;;5.25;;
27572;SDS011;15009;53.082;8.768;2022-07-01T16:12:16;8.27;;;5.15;;
27572;SDS011;15009;53.082;8.768;2022-07-01T16:15:16;13.63;;;5.57;;
27572;SDS011;15009;53.082;8.768;2022-07-01T16:21:23;8.75;;;5.78;;
27572;SDS011;15009;53.082;8.768;2022-07-01T16:24:24;10.02;;;5.97;;
27572;SDS011;15009;53.082;8.768;2022-07-01T16:27:24;12.45;;;5.45;;
27572;SDS011;15009;53.082;8.768;2022-07-01T16:33:27;11.15;;;6.25;;
27572;SDS011;15009;53.082;8.768;2022-07-01T16:36:29;11.50;;;5.90;;
27572;SDS011;15009;53.082;8.768;2022-07-01T16:39:32;11.77;;;6.05;;
27572;SDS011;15009;53.082;8.768;2022-07-01T16:42:33;7.80;;;5.40;;
27572;SDS011;15009;53.082;8.768;2022-07-01T16:45:37;7.93;;;5.18;;
27572;SDS011;15009;53.082;8.768;2022-07-01T16:48:44;8.77;;;5.03;;
27572;SDS011;15009;53.082;8.768;2022-07-01T16:51:48;10.95;;;4.93;;
27572;SDS011;15009;53.082;8.768;2022-07-01T16:54:58;8.95;;;5.30;;
27572;SDS011;15009;53.082;8.768;2022-07-01T16:58:03;15.38;;;10.60;;
27572;SDS011;15009;53.082;8.768;2022-07-01T17:01:04;9.52;;;5.25;;
27572;SDS011;15009;53.082;8.768;2022-07-01T17:04:07;10.65;;;5.32;;
27572;SDS011;15009;53.082;8.768;2022-07-01T17:07:09;9.68;;;4.80;;
27572;SDS011;15009;53.082;8.768;2022-07-01T17:10:11;9.57;;;4.72;;
27572;SDS011;15009;53.082;8.768;2022-07-01T17:13:14;9.30;;;4.60;;
27572;SDS011;15009;53.082;8.768;2022-07-01T17:16:15;10.85;;;4.95;;
27572;SDS011;15009;53.082;8.768;2022-07-01T17:19:16;9.17;;;4.83;;
27572;SDS011;15009;53.082;8.768;2022-07-01T17:25:56;8.05;;;4.53;;
27572;SDS011;15009;53.082;8.768;2022-07-01T17:29:00;8.32;;;4.10;;
27572;SDS011;15009;53.082;8.768;2022-07-01T17:32:06;7.85;;;4.20;;
27572;SDS011;15009;53.082;8.768;2022-07-01T17:35:09;11.25;;;5.00;;
27572;SDS011;15009;53.082;8.768;2022-07-01T17:38:16;9.57;;;5.28;;
27572;SDS011;15009;53.082;8.768;2022-07-01T17:42:02;10.40;;;4.30;;
27572;SDS011;15009;53.082;8.768;2022-07-01T17:44:50;12.25;;;4.00;;
27572;SDS011;15009;53.082;8.768;2022-07-01T17:47:52;8.73;;;3.85;;
27572;SDS011;15009;53.082;8.768;2022-07-01T17:50:54;8.95;;;3.83;;
27572;SDS011;15009;53.082;8.768;2022-07-01T17:53:56;5.63;;;2.80;;
27572;SDS011;15009;53.082;8.768;2022-07-01T17:56:57;4.70;;;2.40;;
27572;SDS011;15009;53.082;8.768;2022-07-01T17:59:58;7.75;;;2.45;;
27572;SDS011;15009;53.082;8.768;2022-07-01T18:03:02;8.30;;;2.42;;
27572;SDS011;15009;53.082;8.768;2022-07-01T18:06:04;7.30;;;2.72;;
27572;SDS011;15009;53.082;8.768;2022-07-01T18:09:05;8.03;;;2.93;;
27572;SDS011;15009;53.082;8.768;2022-07-01T18:15:24;5.38;;;2.45;;
27572;SDS011;15009;53.082;8.768;2022-07-01T18:18:30;6.50;;;2.55;;
27572;SDS011;15009;53.082;8.768;2022-07-01T18:21:31;5.32;;;2.30;;
27572;SDS011;15009;53.082;8.768;2022-07-01T18:24:35;4.90;;;2.50;;
27572;SDS011;15009;53.082;8.768;2022-07-01T18:27:42;5.68;;;2.00;;
27572;SDS011;15009;53.082;8.768;2022-07-01T18:30:47;7.25;;;2.10;;
27572;SDS011;15009;53.082;8.768;2022-07-01T18:34:02;6.88;;;2.00;;